Lawton, Nevada
Current Conditions -  °F | °C
As of 8:55 PM on Thursday 30 Oct 2014 (Local Time) from KRNO Reporting Station
Broken Clouds Broken Clouds  
Wind Chill: 55°   Ceiling: 23000
Heat Index: 55°   Visibility: 10mi
Dew Point: 35°   Wind: 5mph
Humidity: 47%   Direction: 80°E
Pressure: 29.97"   Gusts: NA
Location:  39.5376°N, 119.841°W
Report Text: KRNO 310355Z 08004KT 10SM SCT180 BKN230 13/02 A2997 RMK AO2 SLP128 T01280017
Loading
Personal Weather Stations






























Interactive Weather Map
Tropical Storm Tracking
New forecast layout! Learn more

10-Day Weather Forecast

Advertisements
Track Severe Weather on mobile